sensor_id;sensor_type;location;lat;lon;timestamp;P1;durP1;ratioP1;P2;durP2;ratioP2
35312;SDS011;21425;50.454;30.466;2022-10-31T07:39:44;2.97;;;1.25;;
35312;SDS011;21425;50.454;30.466;2022-10-31T07:42:09;0.82;;;0.50;;
35312;SDS011;21425;50.454;30.466;2022-10-31T07:44:35;2.25;;;0.60;;
35312;SDS011;21425;50.454;30.466;2022-10-31T07:47:00;1.55;;;0.80;;
35312;SDS011;21425;50.454;30.466;2022-10-31T07:49:26;3.05;;;0.52;;
35312;SDS011;21425;50.454;30.466;2022-10-31T07:51:51;3.38;;;0.85;;
35312;SDS011;21425;50.454;30.466;2022-10-31T07:54:17;0.80;;;0.40;;
35312;SDS011;21425;50.454;30.466;2022-10-31T07:56:42;0.85;;;0.50;;
35312;SDS011;21425;50.454;30.466;2022-10-31T07:59:08;7.07;;;0.80;;
35312;SDS011;21425;50.454;30.466;2022-10-31T08:01:33;2.15;;;0.85;;
35312;SDS011;21425;50.454;30.466;2022-10-31T08:03:59;3.30;;;0.90;;
35312;SDS011;21425;50.454;30.466;2022-10-31T08:06:24;1.45;;;0.70;;
35312;SDS011;21425;50.454;30.466;2022-10-31T08:08:50;2.58;;;0.60;;
35312;SDS011;21425;50.454;30.466;2022-10-31T08:11:15;1.30;;;0.70;;
35312;SDS011;21425;50.454;30.466;2022-10-31T08:13:41;3.42;;;1.58;;
35312;SDS011;21425;50.454;30.466;2022-10-31T08:16:07;1.02;;;0.60;;
35312;SDS011;21425;50.454;30.466;2022-10-31T08:18:33;1.38;;;1.02;;
35312;SDS011;21425;50.454;30.466;2022-10-31T08:20:59;6.85;;;2.55;;
35312;SDS011;21425;50.454;30.466;2022-10-31T08:23:24;5.10;;;0.98;;
35312;SDS011;21425;50.454;30.466;2022-10-31T08:25:53;6.32;;;1.35;;
35312;SDS011;21425;50.454;30.466;2022-10-31T08:28:18;3.03;;;0.93;;
35312;SDS011;21425;50.454;30.466;2022-10-31T08:30:44;1.73;;;0.80;;
35312;SDS011;21425;50.454;30.466;2022-10-31T08:33:15;0.82;;;0.60;;
35312;SDS011;21425;50.454;30.466;2022-10-31T08:35:42;1.30;;;0.55;;
35312;SDS011;21425;50.454;30.466;2022-10-31T08:38:09;0.60;;;0.40;;
35312;SDS011;21425;50.454;30.466;2022-10-31T08:40:36;4.05;;;0.73;;
35312;SDS011;21425;50.454;30.466;2022-10-31T08:43:14;2.03;;;0.70;;
35312;SDS011;21425;50.454;30.466;2022-10-31T08:45:41;2.25;;;0.60;;
35312;SDS011;21425;50.454;30.466;2022-10-31T08:48:09;2.42;;;0.70;;
35312;SDS011;21425;50.454;30.466;2022-10-31T08:50:36;3.20;;;1.10;;
35312;SDS011;21425;50.454;30.466;2022-10-31T08:53:03;1.38;;;0.70;;
35312;SDS011;21425;50.454;30.466;2022-10-31T08:55:30;4.25;;;0.85;;
35312;SDS011;21425;50.454;30.466;2022-10-31T08:57:56;2.53;;;1.30;;
35312;SDS011;21425;50.454;30.466;2022-10-31T09:00:23;2.17;;;0.90;;
35312;SDS011;21425;50.454;30.466;2022-10-31T09:02:54;2.10;;;0.82;;
35312;SDS011;21425;50.454;30.466;2022-10-31T09:05:21;1.02;;;0.60;;
35312;SDS011;21425;50.454;30.466;2022-10-31T09:07:46;1.58;;;0.50;;
35312;SDS011;21425;50.454;30.466;2022-10-31T09:10:12;0.77;;;0.57;;
35312;SDS011;21425;50.454;30.466;2022-10-31T09:12:38;2.15;;;0.85;;
35312;SDS011;21425;50.454;30.466;2022-10-31T09:15:03;0.60;;;0.50;;
35312;SDS011;21425;50.454;30.466;2022-10-31T09:17:31;3.35;;;0.80;;
35312;SDS011;21425;50.454;30.466;2022-10-31T09:19:57;2.28;;;0.70;;
35312;SDS011;21425;50.454;30.466;2022-10-31T09:22:22;3.42;;;1.02;;
35312;SDS011;21425;50.454;30.466;2022-10-31T09:24:48;0.90;;;0.57;;
35312;SDS011;21425;50.454;30.466;2022-10-31T09:27:14;1.48;;;0.80;;
35312;SDS011;21425;50.454;30.466;2022-10-31T09:29:39;1.75;;;0.60;;
35312;SDS011;21425;50.454;30.466;2022-10-31T09:32:05;1.15;;;0.60;;
35312;SDS011;21425;50.454;30.466;2022-10-31T09:34:30;1.85;;;0.90;;
35312;SDS011;21425;50.454;30.466;2022-10-31T09:36:56;1.75;;;0.82;;
35312;SDS011;21425;50.454;30.466;2022-10-31T09:39:21;4.75;;;0.80;;
35312;SDS011;21425;50.454;30.466;2022-10-31T09:42:02;1.42;;;0.60;;
35312;SDS011;21425;50.454;30.466;2022-10-31T09:44:44;0.57;;;0.47;;
35312;SDS011;21425;50.454;30.466;2022-10-31T09:47:17;1.33;;;0.57;;
35312;SDS011;21425;50.454;30.466;2022-10-31T09:50:21;1.02;;;0.60;;
35312;SDS011;21425;50.454;30.466;2022-10-31T09:52:58;3.10;;;0.60;;
35312;SDS011;21425;50.454;30.466;2022-10-31T09:55:35;3.53;;;1.10;;
35312;SDS011;21425;50.454;30.466;2022-10-31T09:58:08;1.45;;;0.70;;
35312;SDS011;21425;50.454;30.466;2022-10-31T10:00:41;0.65;;;0.40;;
35312;SDS011;21425;50.454;30.466;2022-10-31T10:05:51;1.27;;;0.50;;
35312;SDS011;21425;50.454;30.466;2022-10-31T10:08:32;6.53;;;0.95;;
35312;SDS011;21425;50.454;30.466;2022-10-31T10:13:35;1.45;;;0.50;;
35312;SDS011;21425;50.454;30.466;2022-10-31T10:16:34;1.58;;;0.75;;
35312;SDS011;21425;50.454;30.466;2022-10-31T10:27:19;0.65;;;0.40;;
35312;SDS011;21425;50.454;30.466;2022-10-31T10:29:52;1.42;;;0.50;;
35312;SDS011;21425;50.454;30.466;2022-10-31T10:32:33;0.88;;;0.50;;
35312;SDS011;21425;50.454;30.466;2022-10-31T10:35:52;2.60;;;0.63;;
35312;SDS011;21425;50.454;30.466;2022-10-31T10:37:59;2.05;;;0.50;;
35312;SDS011;21425;50.454;30.466;2022-10-31T10:40:35;1.45;;;0.68;;
35312;SDS011;21425;50.454;30.466;2022-10-31T10:43:20;1.83;;;0.90;;
35312;SDS011;21425;50.454;30.466;2022-10-31T10:49:08;2.25;;;0.50;;
35312;SDS011;21425;50.454;30.466;2022-10-31T10:52:05;1.25;;;0.68;;
35312;SDS011;21425;50.454;30.466;2022-10-31T10:57:30;2.85;;;0.65;;
35312;SDS011;21425;50.454;30.466;2022-10-31T11:00:20;0.95;;;0.63;;
35312;SDS011;21425;50.454;30.466;2022-10-31T11:02:46;0.80;;;0.57;;
35312;SDS011;21425;50.454;30.466;2022-10-31T11:05:22;1.65;;;0.57;;
35312;SDS011;21425;50.454;30.466;2022-10-31T11:07:50;2.65;;;0.80;;
35312;SDS011;21425;50.454;30.466;2022-10-31T11:10:17;1.02;;;0.50;;
35312;SDS011;21425;50.454;30.466;2022-10-31T11:12:44;1.35;;;0.77;;
35312;SDS011;21425;50.454;30.466;2022-10-31T11:15:23;5.00;;;0.70;;
35312;SDS011;21425;50.454;30.466;2022-10-31T11:17:51;4.22;;;1.48;;
35312;SDS011;21425;50.454;30.466;2022-10-31T11:22:45;2.63;;;0.88;;
35312;SDS011;21425;50.454;30.466;2022-10-31T11:25:25;1.95;;;0.50;;
35312;SDS011;21425;50.454;30.466;2022-10-31T11:28:01;1.88;;;0.80;;
35312;SDS011;21425;50.454;30.466;2022-10-31T11:30:28;1.33;;;0.60;;
35312;SDS011;21425;50.454;30.466;2022-10-31T11:32:55;1.48;;;0.63;;
35312;SDS011;21425;50.454;30.466;2022-10-31T11:35:22;1.88;;;0.70;;
35312;SDS011;21425;50.454;30.466;2022-10-31T11:37:50;1.70;;;0.70;;
35312;SDS011;21425;50.454;30.466;2022-10-31T11:40:22;0.65;;;0.50;;
35312;SDS011;21425;50.454;30.466;2022-10-31T11:42:50;2.72;;;0.70;;
35312;SDS011;21425;50.454;30.466;2022-10-31T11:45:26;1.05;;;0.43;;
35312;SDS011;21425;50.454;30.466;2022-10-31T11:47:57;1.45;;;0.60;;
35312;SDS011;21425;50.454;30.466;2022-10-31T11:50:39;0.50;;;0.45;;
35312;SDS011;21425;50.454;30.466;2022-10-31T11:53:12;1.27;;;0.50;;
35312;SDS011;21425;50.454;30.466;2022-10-31T11:55:41;0.90;;;0.50;;
35312;SDS011;21425;50.454;30.466;2022-10-31T11:58:24;2.47;;;0.88;;
35312;SDS011;21425;50.454;30.466;2022-10-31T12:00:52;3.20;;;0.80;;
35312;SDS011;21425;50.454;30.466;2022-10-31T12:08:36;3.00;;;1.00;;
35312;SDS011;21425;50.454;30.466;2022-10-31T12:13:42;1.98;;;0.85;;
35312;SDS011;21425;50.454;30.466;2022-10-31T12:16:33;1.42;;;0.65;;
35312;SDS011;21425;50.454;30.466;2022-10-31T12:19:04;3.00;;;0.95;;
35312;SDS011;21425;50.454;30.466;2022-10-31T12:24:16;1.67;;;0.73;;
35312;SDS011;21425;50.454;30.466;2022-10-31T12:27:04;1.20;;;0.55;;
35312;SDS011;21425;50.454;30.466;2022-10-31T12:30:11;1.40;;;0.75;;
35312;SDS011;21425;50.454;30.466;2022-10-31T12:41:36;1.85;;;0.70;;
35312;SDS011;21425;50.454;30.466;2022-10-31T12:46:59;1.95;;;1.00;;
35312;SDS011;21425;50.454;30.466;2022-10-31T12:49:34;1.05;;;0.75;;
35312;SDS011;21425;50.454;30.466;2022-10-31T12:52:42;0.80;;;0.70;;
35312;SDS011;21425;50.454;30.466;2022-10-31T12:55:58;1.45;;;0.90;;
35312;SDS011;21425;50.454;30.466;2022-10-31T12:58:26;1.98;;;1.00;;
35312;SDS011;21425;50.454;30.466;2022-10-31T13:01:02;1.73;;;0.63;;
35312;SDS011;21425;50.454;30.466;2022-10-31T13:06:19;5.97;;;0.90;;
35312;SDS011;21425;50.454;30.466;2022-10-31T13:08:57;3.85;;;0.95;;
35312;SDS011;21425;50.454;30.466;2022-10-31T13:11:27;0.98;;;0.60;;
35312;SDS011;21425;50.454;30.466;2022-10-31T13:16:35;1.95;;;0.70;;
35312;SDS011;21425;50.454;30.466;2022-10-31T13:19:17;4.40;;;0.95;;
35312;SDS011;21425;50.454;30.466;2022-10-31T13:27:02;1.05;;;0.60;;
35312;SDS011;21425;50.454;30.466;2022-10-31T13:29:38;2.17;;;0.95;;
35312;SDS011;21425;50.454;30.466;2022-10-31T13:32:09;2.42;;;0.70;;
35312;SDS011;21425;50.454;30.466;2022-10-31T13:34:39;1.30;;;0.70;;
35312;SDS011;21425;50.454;30.466;2022-10-31T13:42:48;1.52;;;0.70;;
35312;SDS011;21425;50.454;30.466;2022-10-31T13:45:25;2.20;;;0.52;;
35312;SDS011;21425;50.454;30.466;2022-10-31T13:48:01;3.70;;;0.95;;
35312;SDS011;21425;50.454;30.466;2022-10-31T13:56:33;1.95;;;0.90;;
35312;SDS011;21425;50.454;30.466;2022-10-31T13:59:00;1.50;;;0.70;;
35312;SDS011;21425;50.454;30.466;2022-10-31T14:01:36;1.75;;;0.77;;
35312;SDS011;21425;50.454;30.466;2022-10-31T14:04:15;1.60;;;0.82;;
35312;SDS011;21425;50.454;30.466;2022-10-31T14:09:33;2.22;;;0.85;;
35312;SDS011;21425;50.454;30.466;2022-10-31T14:12:06;1.38;;;0.65;;
35312;SDS011;21425;50.454;30.466;2022-10-31T14:14:42;1.85;;;0.80;;
35312;SDS011;21425;50.454;30.466;2022-10-31T14:17:20;1.02;;;0.70;;
35312;SDS011;21425;50.454;30.466;2022-10-31T14:20:19;1.38;;;0.90;;
35312;SDS011;21425;50.454;30.466;2022-10-31T14:26:18;2.15;;;0.77;;
35312;SDS011;21425;50.454;30.466;2022-10-31T14:28:55;0.90;;;0.60;;
35312;SDS011;21425;50.454;30.466;2022-10-31T14:31:45;1.70;;;0.88;;
35312;SDS011;21425;50.454;30.466;2022-10-31T14:50:57;3.63;;;1.05;;
35312;SDS011;21425;50.454;30.466;2022-10-31T14:53:29;2.85;;;1.58;;
35312;SDS011;21425;50.454;30.466;2022-10-31T14:55:58;3.58;;;1.50;;
35312;SDS011;21425;50.454;30.466;2022-10-31T14:58:30;3.60;;;1.20;;
35312;SDS011;21425;50.454;30.466;2022-10-31T15:01:01;3.17;;;1.58;;
35312;SDS011;21425;50.454;30.466;2022-10-31T15:03:29;2.63;;;1.30;;
35312;SDS011;21425;50.454;30.466;2022-10-31T15:05:59;1.88;;;1.00;;
35312;SDS011;21425;50.454;30.466;2022-10-31T15:11:02;3.65;;;1.45;;
35312;SDS011;21425;50.454;30.466;2022-10-31T15:13:33;4.07;;;1.17;;
35312;SDS011;21425;50.454;30.466;2022-10-31T15:15:59;2.75;;;1.30;;
35312;SDS011;21425;50.454;30.466;2022-10-31T15:18:25;5.20;;;1.58;;
35312;SDS011;21425;50.454;30.466;2022-10-31T15:20:53;5.55;;;1.50;;
35312;SDS011;21425;50.454;30.466;2022-10-31T15:23:21;3.15;;;1.58;;
35312;SDS011;21425;50.454;30.466;2022-10-31T15:25:50;5.07;;;1.52;;
35312;SDS011;21425;50.454;30.466;2022-10-31T15:28:20;5.03;;;1.45;;
35312;SDS011;21425;50.454;30.466;2022-10-31T15:30:52;3.30;;;1.38;;
35312;SDS011;21425;50.454;30.466;2022-10-31T15:33:23;5.32;;;1.50;;
35312;SDS011;21425;50.454;30.466;2022-10-31T15:35:54;5.00;;;1.40;;
35312;SDS011;21425;50.454;30.466;2022-10-31T15:38:21;3.45;;;1.80;;
35312;SDS011;21425;50.454;30.466;2022-10-31T15:40:52;5.07;;;1.70;;
35312;SDS011;21425;50.454;30.466;2022-10-31T15:43:20;3.72;;;1.77;;
35312;SDS011;21425;50.454;30.466;2022-10-31T15:45:46;8.00;;;1.95;;
35312;SDS011;21425;50.454;30.466;2022-10-31T15:48:19;7.30;;;2.15;;
35312;SDS011;21425;50.454;30.466;2022-10-31T15:50:49;4.70;;;1.95;;
35312;SDS011;21425;50.454;30.466;2022-10-31T15:53:35;6.10;;;2.05;;
35312;SDS011;21425;50.454;30.466;2022-10-31T15:56:06;4.05;;;1.52;;
35312;SDS011;21425;50.454;30.466;2022-10-31T15:58:39;4.82;;;1.67;;
35312;SDS011;21425;50.454;30.466;2022-10-31T16:03:58;4.57;;;1.92;;
35312;SDS011;21425;50.454;30.466;2022-10-31T16:06:24;8.90;;;2.13;;
35312;SDS011;21425;50.454;30.466;2022-10-31T16:08:50;8.80;;;2.33;;
35312;SDS011;21425;50.454;30.466;2022-10-31T16:11:33;3.70;;;2.15;;
35312;SDS011;21425;50.454;30.466;2022-10-31T16:16:45;5.47;;;2.10;;
35312;SDS011;21425;50.454;30.466;2022-10-31T16:19:24;7.20;;;3.28;;
35312;SDS011;21425;50.454;30.466;2022-10-31T16:21:54;4.80;;;2.50;;
35312;SDS011;21425;50.454;30.466;2022-10-31T16:26:57;12.60;;;3.00;;
35312;SDS011;21425;50.454;30.466;2022-10-31T16:29:38;7.68;;;2.70;;
35312;SDS011;21425;50.454;30.466;2022-10-31T16:32:30;6.43;;;2.80;;
35312;SDS011;21425;50.454;30.466;2022-10-31T16:37:36;6.50;;;2.92;;
35312;SDS011;21425;50.454;30.466;2022-10-31T16:40:02;7.00;;;3.17;;
35312;SDS011;21425;50.454;30.466;2022-10-31T16:42:28;6.97;;;2.50;;
35312;SDS011;21425;50.454;30.466;2022-10-31T16:44:54;11.25;;;3.70;;
35312;SDS011;21425;50.454;30.466;2022-10-31T16:47:20;5.72;;;2.67;;
35312;SDS011;21425;50.454;30.466;2022-10-31T16:49:46;8.50;;;3.13;;
35312;SDS011;21425;50.454;30.466;2022-10-31T16:52:14;5.13;;;2.75;;
35312;SDS011;21425;50.454;30.466;2022-10-31T16:54:40;7.50;;;2.75;;
35312;SDS011;21425;50.454;30.466;2022-10-31T16:57:06;5.55;;;2.58;;
35312;SDS011;21425;50.454;30.466;2022-10-31T16:59:35;6.72;;;2.85;;
35312;SDS011;21425;50.454;30.466;2022-10-31T17:02:01;5.90;;;3.03;;
35312;SDS011;21425;50.454;30.466;2022-10-31T17:04:29;6.80;;;3.08;;
35312;SDS011;21425;50.454;30.466;2022-10-31T17:06:54;9.07;;;4.03;;
35312;SDS011;21425;50.454;30.466;2022-10-31T17:09:20;11.68;;;3.78;;
35312;SDS011;21425;50.454;30.466;2022-10-31T17:11:46;7.82;;;2.95;;
35312;SDS011;21425;50.454;30.466;2022-10-31T17:14:15;8.68;;;3.78;;
35312;SDS011;21425;50.454;30.466;2022-10-31T17:16:42;9.43;;;4.22;;
35312;SDS011;21425;50.454;30.466;2022-10-31T17:19:11;5.95;;;2.63;;
35312;SDS011;21425;50.454;30.466;2022-10-31T17:21:37;8.57;;;2.47;;
35312;SDS011;21425;50.454;30.466;2022-10-31T17:24:03;9.77;;;3.15;;
35312;SDS011;21425;50.454;30.466;2022-10-31T17:26:29;9.90;;;4.55;;
35312;SDS011;21425;50.454;30.466;2022-10-31T17:28:55;7.80;;;3.22;;
35312;SDS011;21425;50.454;30.466;2022-10-31T17:31:27;6.15;;;2.88;;
35312;SDS011;21425;50.454;30.466;2022-10-31T17:33:54;10.27;;;4.20;;
35312;SDS011;21425;50.454;30.466;2022-10-31T17:36:21;7.28;;;3.53;;
35312;SDS011;21425;50.454;30.466;2022-10-31T17:38:46;6.43;;;2.63;;
35312;SDS011;21425;50.454;30.466;2022-10-31T17:41:12;8.10;;;3.03;;
35312;SDS011;21425;50.454;30.466;2022-10-31T17:43:37;7.22;;;3.67;;
35312;SDS011;21425;50.454;30.466;2022-10-31T17:46:03;8.25;;;3.38;;
35312;SDS011;21425;50.454;30.466;2022-10-31T17:48:29;9.77;;;2.60;;
35312;SDS011;21425;50.454;30.466;2022-10-31T17:51:00;7.90;;;2.80;;
35312;SDS011;21425;50.454;30.466;2022-10-31T17:53:27;7.28;;;3.35;;
35312;SDS011;21425;50.454;30.466;2022-10-31T17:56:01;6.18;;;2.88;;
35312;SDS011;21425;50.454;30.466;2022-10-31T17:58:28;6.88;;;3.08;;
35312;SDS011;21425;50.454;30.466;2022-10-31T18:00:54;5.80;;;2.20;;
35312;SDS011;21425;50.454;30.466;2022-10-31T18:03:19;5.30;;;2.50;;
35312;SDS011;21425;50.454;30.466;2022-10-31T18:05:57;5.05;;;2.50;;
35312;SDS011;21425;50.454;30.466;2022-10-31T18:08:26;7.25;;;2.60;;
35312;SDS011;21425;50.454;30.466;2022-10-31T18:10:53;6.05;;;2.30;;
35312;SDS011;21425;50.454;30.466;2022-10-31T18:13:20;4.80;;;1.90;;
35312;SDS011;21425;50.454;30.466;2022-10-31T18:15:46;6.20;;;2.70;;
35312;SDS011;21425;50.454;30.466;2022-10-31T18:18:11;5.68;;;2.33;;
35312;SDS011;21425;50.454;30.466;2022-10-31T18:20:37;7.68;;;2.78;;
35312;SDS011;21425;50.454;30.466;2022-10-31T18:23:02;7.53;;;3.20;;
35312;SDS011;21425;50.454;30.466;2022-10-31T18:25:28;5.93;;;2.35;;
35312;SDS011;21425;50.454;30.466;2022-10-31T18:27:54;7.00;;;2.75;;
35312;SDS011;21425;50.454;30.466;2022-10-31T18:30:20;8.43;;;2.13;;
35312;SDS011;21425;50.454;30.466;2022-10-31T18:32:49;9.20;;;3.42;;
35312;SDS011;21425;50.454;30.466;2022-10-31T18:35:17;7.47;;;2.55;;
35312;SDS011;21425;50.454;30.466;2022-10-31T18:37:43;8.43;;;2.97;;
35312;SDS011;21425;50.454;30.466;2022-10-31T18:40:09;6.57;;;2.92;;
35312;SDS011;21425;50.454;30.466;2022-10-31T18:42:34;6.13;;;2.35;;
35312;SDS011;21425;50.454;30.466;2022-10-31T18:45:02;4.85;;;2.38;;
35312;SDS011;21425;50.454;30.466;2022-10-31T18:47:28;6.85;;;2.88;;
35312;SDS011;21425;50.454;30.466;2022-10-31T18:49:54;4.65;;;2.50;;
35312;SDS011;21425;50.454;30.466;2022-10-31T18:52:20;7.35;;;2.55;;
35312;SDS011;21425;50.454;30.466;2022-10-31T18:54:45;5.95;;;3.03;;
35312;SDS011;21425;50.454;30.466;2022-10-31T18:57:11;7.68;;;3.13;;
35312;SDS011;21425;50.454;30.466;2022-10-31T18:59:37;5.32;;;2.50;;
35312;SDS011;21425;50.454;30.466;2022-10-31T19:02:02;8.68;;;3.08;;
35312;SDS011;21425;50.454;30.466;2022-10-31T19:04:28;8.40;;;3.33;;
35312;SDS011;21425;50.454;30.466;2022-10-31T19:06:54;9.93;;;4.95;;
35312;SDS011;21425;50.454;30.466;2022-10-31T19:09:20;9.90;;;4.13;;
35312;SDS011;21425;50.454;30.466;2022-10-31T19:11:45;8.13;;;3.20;;
35312;SDS011;21425;50.454;30.466;2022-10-31T19:14:11;6.47;;;3.20;;
35312;SDS011;21425;50.454;30.466;2022-10-31T19:16:38;6.88;;;2.53;;
35312;SDS011;21425;50.454;30.466;2022-10-31T19:19:04;7.80;;;2.63;;
35312;SDS011;21425;50.454;30.466;2022-10-31T19:21:30;7.70;;;4.13;;
35312;SDS011;21425;50.454;30.466;2022-10-31T19:23:56;6.78;;;3.10;;
35312;SDS011;21425;50.454;30.466;2022-10-31T19:26:23;5.95;;;2.25;;
35312;SDS011;21425;50.454;30.466;2022-10-31T19:28:50;5.45;;;2.17;;
35312;SDS011;21425;50.454;30.466;2022-10-31T19:31:16;6.40;;;2.55;;
35312;SDS011;21425;50.454;30.466;2022-10-31T19:33:43;6.85;;;2.60;;
35312;SDS011;21425;50.454;30.466;2022-10-31T19:36:13;9.48;;;2.20;;
35312;SDS011;21425;50.454;30.466;2022-10-31T19:38:41;8.30;;;2.67;;
35312;SDS011;21425;50.454;30.466;2022-10-31T19:41:09;9.05;;;3.08;;
35312;SDS011;21425;50.454;30.466;2022-10-31T19:43:50;7.60;;;3.03;;
35312;SDS011;21425;50.454;30.466;2022-10-31T19:46:17;6.43;;;3.67;;
35312;SDS011;21425;50.454;30.466;2022-10-31T19:48:44;8.68;;;3.70;;
35312;SDS011;21425;50.454;30.466;2022-10-31T19:51:10;12.60;;;3.95;;
35312;SDS011;21425;50.454;30.466;2022-10-31T19:53:38;7.43;;;3.10;;
35312;SDS011;21425;50.454;30.466;2022-10-31T19:56:04;5.75;;;2.60;;
35312;SDS011;21425;50.454;30.466;2022-10-31T19:58:39;8.15;;;2.33;;
35312;SDS011;21425;50.454;30.466;2022-10-31T20:01:12;8.43;;;2.70;;
35312;SDS011;21425;50.454;30.466;2022-10-31T20:03:43;6.60;;;2.67;;
35312;SDS011;21425;50.454;30.466;2022-10-31T20:06:28;5.55;;;2.25;;
35312;SDS011;21425;50.454;30.466;2022-10-31T20:08:56;7.65;;;2.80;;
35312;SDS011;21425;50.454;30.466;2022-10-31T20:11:23;8.75;;;2.47;;
35312;SDS011;21425;50.454;30.466;2022-10-31T20:13:50;12.57;;;5.68;;
35312;SDS011;21425;50.454;30.466;2022-10-31T20:16:16;9.23;;;2.72;;
35312;SDS011;21425;50.454;30.466;2022-10-31T20:18:42;7.25;;;3.00;;
35312;SDS011;21425;50.454;30.466;2022-10-31T20:21:12;10.35;;;2.30;;
35312;SDS011;21425;50.454;30.466;2022-10-31T20:23:39;6.28;;;2.50;;
35312;SDS011;21425;50.454;30.466;2022-10-31T20:26:06;12.30;;;2.53;;
35312;SDS011;21425;50.454;30.466;2022-10-31T20:28:33;6.57;;;2.78;;
35312;SDS011;21425;50.454;30.466;2022-10-31T20:30:59;4.95;;;2.28;;
35312;SDS011;21425;50.454;30.466;2022-10-31T20:33:25;9.60;;;3.03;;
35312;SDS011;21425;50.454;30.466;2022-10-31T20:35:51;5.95;;;2.30;;
35312;SDS011;21425;50.454;30.466;2022-10-31T20:38:16;6.82;;;3.33;;
35312;SDS011;21425;50.454;30.466;2022-10-31T20:40:42;5.63;;;2.38;;
35312;SDS011;21425;50.454;30.466;2022-10-31T20:43:08;7.78;;;2.97;;
35312;SDS011;21425;50.454;30.466;2022-10-31T20:45:35;6.75;;;2.35;;
35312;SDS011;21425;50.454;30.466;2022-10-31T20:48:01;6.90;;;3.10;;
35312;SDS011;21425;50.454;30.466;2022-10-31T20:50:26;7.50;;;3.08;;
35312;SDS011;21425;50.454;30.466;2022-10-31T20:52:52;7.28;;;3.25;;
35312;SDS011;21425;50.454;30.466;2022-10-31T20:55:18;9.32;;;3.33;;
35312;SDS011;21425;50.454;30.466;2022-10-31T20:57:44;9.73;;;3.83;;
35312;SDS011;21425;50.454;30.466;2022-10-31T21:00:09;5.90;;;3.38;;
35312;SDS011;21425;50.454;30.466;2022-10-31T21:02:38;8.85;;;2.97;;
35312;SDS011;21425;50.454;30.466;2022-10-31T21:05:06;6.40;;;2.63;;
35312;SDS011;21425;50.454;30.466;2022-10-31T21:07:35;12.38;;;3.63;;
35312;SDS011;21425;50.454;30.466;2022-10-31T21:10:01;6.30;;;3.25;;
35312;SDS011;21425;50.454;30.466;2022-10-31T21:12:27;7.32;;;3.25;;
35312;SDS011;21425;50.454;30.466;2022-10-31T21:14:52;9.10;;;2.78;;
35312;SDS011;21425;50.454;30.466;2022-10-31T21:17:18;7.72;;;2.47;;
35312;SDS011;21425;50.454;30.466;2022-10-31T21:19:43;9.20;;;3.35;;
35312;SDS011;21425;50.454;30.466;2022-10-31T21:22:09;12.65;;;2.10;;
35312;SDS011;21425;50.454;30.466;2022-10-31T21:24:34;5.50;;;2.10;;
35312;SDS011;21425;50.454;30.466;2022-10-31T21:27:00;9.23;;;2.47;;
35312;SDS011;21425;50.454;30.466;2022-10-31T21:29:28;5.93;;;2.45;;
35312;SDS011;21425;50.454;30.466;2022-10-31T21:31:54;10.52;;;2.20;;
35312;SDS011;21425;50.454;30.466;2022-10-31T21:34:19;7.47;;;2.35;;
35312;SDS011;21425;50.454;30.466;2022-10-31T21:36:45;4.72;;;2.28;;
35312;SDS011;21425;50.454;30.466;2022-10-31T21:39:10;6.38;;;2.53;;
35312;SDS011;21425;50.454;30.466;2022-10-31T21:41:36;5.28;;;2.17;;
35312;SDS011;21425;50.454;30.466;2022-10-31T21:44:02;5.70;;;2.60;;
35312;SDS011;21425;50.454;30.466;2022-10-31T21:46:29;4.68;;;2.00;;
35312;SDS011;21425;50.454;30.466;2022-10-31T21:48:56;7.85;;;2.13;;
35312;SDS011;21425;50.454;30.466;2022-10-31T21:51:25;7.13;;;2.38;;
35312;SDS011;21425;50.454;30.466;2022-10-31T21:53:53;5.97;;;2.35;;
35312;SDS011;21425;50.454;30.466;2022-10-31T21:56:38;5.10;;;1.95;;
35312;SDS011;21425;50.454;30.466;2022-10-31T21:59:04;7.88;;;2.05;;
35312;SDS011;21425;50.454;30.466;2022-10-31T22:01:30;5.57;;;2.13;;
35312;SDS011;21425;50.454;30.466;2022-10-31T22:03:56;5.28;;;1.90;;
35312;SDS011;21425;50.454;30.466;2022-10-31T22:06:22;6.53;;;1.77;;
35312;SDS011;21425;50.454;30.466;2022-10-31T22:08:53;4.57;;;2.50;;
35312;SDS011;21425;50.454;30.466;2022-10-31T22:11:20;5.07;;;2.08;;
35312;SDS011;21425;50.454;30.466;2022-10-31T22:13:46;6.25;;;2.13;;
35312;SDS011;21425;50.454;30.466;2022-10-31T22:16:14;6.55;;;1.98;;
35312;SDS011;21425;50.454;30.466;2022-10-31T22:18:41;7.45;;;2.38;;
35312;SDS011;21425;50.454;30.466;2022-10-31T22:21:12;4.70;;;2.13;;
35312;SDS011;21425;50.454;30.466;2022-10-31T22:23:42;5.35;;;2.25;;
35312;SDS011;21425;50.454;30.466;2022-10-31T22:26:13;8.32;;;2.13;;
35312;SDS011;21425;50.454;30.466;2022-10-31T22:28:44;5.72;;;2.15;;
35312;SDS011;21425;50.454;30.466;2022-10-31T22:31:11;3.40;;;1.90;;
35312;SDS011;21425;50.454;30.466;2022-10-31T22:33:39;8.68;;;2.83;;
35312;SDS011;21425;50.454;30.466;2022-10-31T22:36:06;7.50;;;3.00;;
35312;SDS011;21425;50.454;30.466;2022-10-31T22:38:36;7.93;;;2.45;;
35312;SDS011;21425;50.454;30.466;2022-10-31T22:41:12;10.43;;;2.28;;
35312;SDS011;21425;50.454;30.466;2022-10-31T22:43:39;4.80;;;2.08;;
35312;SDS011;21425;50.454;30.466;2022-10-31T22:46:06;6.35;;;2.35;;
35312;SDS011;21425;50.454;30.466;2022-10-31T22:48:36;5.20;;;2.10;;
35312;SDS011;21425;50.454;30.466;2022-10-31T22:51:07;7.22;;;2.65;;
35312;SDS011;21425;50.454;30.466;2022-10-31T22:53:40;7.55;;;3.05;;
35312;SDS011;21425;50.454;30.466;2022-10-31T22:56:07;5.32;;;2.13;;
35312;SDS011;21425;50.454;30.466;2022-10-31T22:58:33;9.63;;;2.80;;
35312;SDS011;21425;50.454;30.466;2022-10-31T23:01:04;6.97;;;2.22;;
35312;SDS011;21425;50.454;30.466;2022-10-31T23:03:35;7.47;;;2.78;;
35312;SDS011;21425;50.454;30.466;2022-10-31T23:06:01;7.50;;;2.83;;
35312;SDS011;21425;50.454;30.466;2022-10-31T23:08:28;8.45;;;2.60;;
35312;SDS011;21425;50.454;30.466;2022-10-31T23:10:54;6.15;;;2.67;;
35312;SDS011;21425;50.454;30.466;2022-10-31T23:13:20;5.70;;;2.20;;
35312;SDS011;21425;50.454;30.466;2022-10-31T23:16:06;7.20;;;3.08;;
35312;SDS011;21425;50.454;30.466;2022-10-31T23:18:33;9.73;;;2.55;;
35312;SDS011;21425;50.454;30.466;2022-10-31T23:20:59;10.95;;;2.63;;
35312;SDS011;21425;50.454;30.466;2022-10-31T23:23:26;7.95;;;2.45;;
35312;SDS011;21425;50.454;30.466;2022-10-31T23:25:52;6.32;;;2.60;;
35312;SDS011;21425;50.454;30.466;2022-10-31T23:28:36;11.50;;;3.00;;
35312;SDS011;21425;50.454;30.466;2022-10-31T23:31:02;10.05;;;2.90;;
35312;SDS011;21425;50.454;30.466;2022-10-31T23:33:27;7.30;;;2.55;;
35312;SDS011;21425;50.454;30.466;2022-10-31T23:35:53;4.47;;;2.30;;
35312;SDS011;21425;50.454;30.466;2022-10-31T23:38:19;4.45;;;2.42;;
35312;SDS011;21425;50.454;30.466;2022-10-31T23:40:44;6.78;;;2.25;;
35312;SDS011;21425;50.454;30.466;2022-10-31T23:43:10;6.80;;;3.08;;
35312;SDS011;21425;50.454;30.466;2022-10-31T23:45:35;9.88;;;3.05;;
35312;SDS011;21425;50.454;30.466;2022-10-31T23:48:01;8.07;;;3.30;;
35312;SDS011;21425;50.454;30.466;2022-10-31T23:50:27;8.05;;;2.85;;
35312;SDS011;21425;50.454;30.466;2022-10-31T23:52:52;4.03;;;2.30;;
35312;SDS011;21425;50.454;30.466;2022-10-31T23:55:18;8.73;;;4.25;;
35312;SDS011;21425;50.454;30.466;2022-10-31T23:57:44;8.13;;;3.65;;
